sensor_id;sensor_type;location;lat;lon;timestamp;P1;durP1;ratioP1;P2;durP2;ratioP2
26512;SDS011;14186;53.822;10.152;2023-07-30T00:01:52;23.63;;;9.40;;
26512;SDS011;14186;53.822;10.152;2023-07-30T00:06:53;19.00;;;8.68;;
26512;SDS011;14186;53.822;10.152;2023-07-30T00:11:53;20.05;;;9.00;;
26512;SDS011;14186;53.822;10.152;2023-07-30T00:16:55;12.30;;;8.70;;
26512;SDS011;14186;53.822;10.152;2023-07-30T00:21:55;18.05;;;8.25;;
26512;SDS011;14186;53.822;10.152;2023-07-30T00:26:56;14.88;;;8.63;;
26512;SDS011;14186;53.822;10.152;2023-07-30T00:31:57;13.98;;;9.40;;
26512;SDS011;14186;53.822;10.152;2023-07-30T00:36:57;16.00;;;9.45;;
26512;SDS011;14186;53.822;10.152;2023-07-30T00:41:58;17.02;;;10.05;;
26512;SDS011;14186;53.822;10.152;2023-07-30T00:47:00;14.53;;;9.97;;
26512;SDS011;14186;53.822;10.152;2023-07-30T00:52:00;16.50;;;10.18;;
26512;SDS011;14186;53.822;10.152;2023-07-30T00:57:01;14.27;;;10.48;;
26512;SDS011;14186;53.822;10.152;2023-07-30T01:02:03;15.63;;;9.60;;
26512;SDS011;14186;53.822;10.152;2023-07-30T01:07:04;9.73;;;7.47;;
26512;SDS011;14186;53.822;10.152;2023-07-30T01:12:05;11.23;;;7.90;;
26512;SDS011;14186;53.822;10.152;2023-07-30T01:17:07;10.10;;;8.30;;
26512;SDS011;14186;53.822;10.152;2023-07-30T01:22:09;12.98;;;9.00;;
26512;SDS011;14186;53.822;10.152;2023-07-30T01:27:18;12.73;;;8.57;;
26512;SDS011;14186;53.822;10.152;2023-07-30T01:32:20;11.38;;;8.73;;
26512;SDS011;14186;53.822;10.152;2023-07-30T01:37:23;12.30;;;8.50;;
26512;SDS011;14186;53.822;10.152;2023-07-30T01:42:27;13.18;;;8.50;;
26512;SDS011;14186;53.822;10.152;2023-07-30T01:47:28;12.52;;;8.68;;
26512;SDS011;14186;53.822;10.152;2023-07-30T01:52:30;10.85;;;7.45;;
26512;SDS011;14186;53.822;10.152;2023-07-30T01:57:30;13.73;;;8.13;;
26512;SDS011;14186;53.822;10.152;2023-07-30T02:02:30;12.25;;;8.07;;
26512;SDS011;14186;53.822;10.152;2023-07-30T02:07:32;12.73;;;8.18;;
26512;SDS011;14186;53.822;10.152;2023-07-30T02:12:32;11.75;;;8.20;;
26512;SDS011;14186;53.822;10.152;2023-07-30T02:17:33;12.77;;;8.60;;
26512;SDS011;14186;53.822;10.152;2023-07-30T02:22:34;13.60;;;8.32;;
26512;SDS011;14186;53.822;10.152;2023-07-30T02:27:34;14.35;;;7.90;;
26512;SDS011;14186;53.822;10.152;2023-07-30T02:32:35;11.77;;;8.65;;
26512;SDS011;14186;53.822;10.152;2023-07-30T02:37:37;13.05;;;8.50;;
26512;SDS011;14186;53.822;10.152;2023-07-30T02:42:37;10.63;;;8.00;;
26512;SDS011;14186;53.822;10.152;2023-07-30T02:47:37;13.30;;;8.30;;
26512;SDS011;14186;53.822;10.152;2023-07-30T02:52:39;9.73;;;6.60;;
26512;SDS011;14186;53.822;10.152;2023-07-30T02:57:39;9.10;;;6.55;;
26512;SDS011;14186;53.822;10.152;2023-07-30T03:02:39;9.30;;;6.63;;
26512;SDS011;14186;53.822;10.152;2023-07-30T03:07:42;8.98;;;6.90;;
26512;SDS011;14186;53.822;10.152;2023-07-30T03:12:42;8.65;;;6.28;;
26512;SDS011;14186;53.822;10.152;2023-07-30T03:17:42;9.40;;;6.32;;
26512;SDS011;14186;53.822;10.152;2023-07-30T03:22:44;8.43;;;6.33;;
26512;SDS011;14186;53.822;10.152;2023-07-30T03:27:44;10.30;;;5.70;;
26512;SDS011;14186;53.822;10.152;2023-07-30T03:32:44;8.85;;;6.35;;
26512;SDS011;14186;53.822;10.152;2023-07-30T03:37:46;10.32;;;7.40;;
26512;SDS011;14186;53.822;10.152;2023-07-30T03:42:46;8.75;;;6.97;;
26512;SDS011;14186;53.822;10.152;2023-07-30T03:47:47;12.40;;;8.20;;
26512;SDS011;14186;53.822;10.152;2023-07-30T03:52:48;16.33;;;8.57;;
26512;SDS011;14186;53.822;10.152;2023-07-30T03:57:48;10.85;;;8.27;;
26512;SDS011;14186;53.822;10.152;2023-07-30T04:02:49;10.88;;;8.05;;
26512;SDS011;14186;53.822;10.152;2023-07-30T04:07:51;10.68;;;8.07;;
26512;SDS011;14186;53.822;10.152;2023-07-30T04:12:51;13.25;;;8.75;;
26512;SDS011;14186;53.822;10.152;2023-07-30T04:17:51;11.82;;;8.40;;
26512;SDS011;14186;53.822;10.152;2023-07-30T04:22:53;11.10;;;8.18;;
26512;SDS011;14186;53.822;10.152;2023-07-30T04:27:53;11.70;;;7.60;;
26512;SDS011;14186;53.822;10.152;2023-07-30T04:32:53;10.55;;;7.40;;
26512;SDS011;14186;53.822;10.152;2023-07-30T04:37:55;8.93;;;6.65;;
26512;SDS011;14186;53.822;10.152;2023-07-30T04:42:55;9.75;;;6.28;;
26512;SDS011;14186;53.822;10.152;2023-07-30T04:47:55;9.68;;;5.53;;
26512;SDS011;14186;53.822;10.152;2023-07-30T04:52:57;6.13;;;5.07;;
26512;SDS011;14186;53.822;10.152;2023-07-30T04:57:57;8.00;;;5.82;;
26512;SDS011;14186;53.822;10.152;2023-07-30T05:02:58;7.80;;;5.15;;
26512;SDS011;14186;53.822;10.152;2023-07-30T05:08:00;6.32;;;4.55;;
26512;SDS011;14186;53.822;10.152;2023-07-30T05:13:00;11.63;;;5.00;;
26512;SDS011;14186;53.822;10.152;2023-07-30T05:18:01;6.55;;;4.22;;
26512;SDS011;14186;53.822;10.152;2023-07-30T05:23:03;5.97;;;4.10;;
26512;SDS011;14186;53.822;10.152;2023-07-30T05:28:04;11.80;;;4.60;;
26512;SDS011;14186;53.822;10.152;2023-07-30T05:33:04;8.80;;;4.50;;
26512;SDS011;14186;53.822;10.152;2023-07-30T05:38:05;9.23;;;4.82;;
26512;SDS011;14186;53.822;10.152;2023-07-30T05:43:06;12.77;;;4.93;;
26512;SDS011;14186;53.822;10.152;2023-07-30T05:48:06;8.40;;;4.38;;
26512;SDS011;14186;53.822;10.152;2023-07-30T05:53:08;9.65;;;4.15;;
26512;SDS011;14186;53.822;10.152;2023-07-30T05:58:08;9.95;;;4.38;;
26512;SDS011;14186;53.822;10.152;2023-07-30T06:03:08;11.57;;;4.50;;
26512;SDS011;14186;53.822;10.152;2023-07-30T06:08:10;8.75;;;4.55;;
26512;SDS011;14186;53.822;10.152;2023-07-30T06:13:10;8.00;;;3.92;;
26512;SDS011;14186;53.822;10.152;2023-07-30T06:18:10;13.95;;;5.10;;
26512;SDS011;14186;53.822;10.152;2023-07-30T06:23:12;12.93;;;4.82;;
26512;SDS011;14186;53.822;10.152;2023-07-30T06:28:12;12.23;;;5.00;;
26512;SDS011;14186;53.822;10.152;2023-07-30T06:33:12;10.05;;;4.90;;
26512;SDS011;14186;53.822;10.152;2023-07-30T06:38:14;8.50;;;4.07;;
26512;SDS011;14186;53.822;10.152;2023-07-30T06:43:14;9.23;;;4.65;;
26512;SDS011;14186;53.822;10.152;2023-07-30T06:48:15;16.77;;;5.38;;
26512;SDS011;14186;53.822;10.152;2023-07-30T06:53:16;11.50;;;4.95;;
26512;SDS011;14186;53.822;10.152;2023-07-30T06:58:17;10.05;;;5.13;;
26512;SDS011;14186;53.822;10.152;2023-07-30T07:03:17;14.88;;;5.07;;
26512;SDS011;14186;53.822;10.152;2023-07-30T07:08:18;12.18;;;4.95;;
26512;SDS011;14186;53.822;10.152;2023-07-30T07:13:19;10.68;;;4.72;;
26512;SDS011;14186;53.822;10.152;2023-07-30T07:18:19;11.10;;;5.00;;
26512;SDS011;14186;53.822;10.152;2023-07-30T07:23:21;13.27;;;4.97;;
26512;SDS011;14186;53.822;10.152;2023-07-30T07:28:21;12.85;;;5.68;;
26512;SDS011;14186;53.822;10.152;2023-07-30T07:33:21;11.85;;;5.15;;
26512;SDS011;14186;53.822;10.152;2023-07-30T07:38:23;9.63;;;4.93;;
26512;SDS011;14186;53.822;10.152;2023-07-30T07:43:23;12.95;;;4.72;;
26512;SDS011;14186;53.822;10.152;2023-07-30T07:48:24;11.23;;;5.20;;
26512;SDS011;14186;53.822;10.152;2023-07-30T07:53:25;11.80;;;4.68;;
26512;SDS011;14186;53.822;10.152;2023-07-30T07:58:25;16.08;;;5.60;;
26512;SDS011;14186;53.822;10.152;2023-07-30T08:03:26;18.30;;;6.13;;
26512;SDS011;14186;53.822;10.152;2023-07-30T08:08:27;13.05;;;4.90;;
26512;SDS011;14186;53.822;10.152;2023-07-30T08:13:28;15.65;;;5.60;;
26512;SDS011;14186;53.822;10.152;2023-07-30T08:18:28;10.10;;;4.60;;
26512;SDS011;14186;53.822;10.152;2023-07-30T08:23:30;12.37;;;5.60;;
26512;SDS011;14186;53.822;10.152;2023-07-30T08:28:30;12.55;;;5.05;;
26512;SDS011;14186;53.822;10.152;2023-07-30T08:33:30;14.95;;;5.05;;
26512;SDS011;14186;53.822;10.152;2023-07-30T08:38:32;13.18;;;4.70;;
26512;SDS011;14186;53.822;10.152;2023-07-30T08:43:32;21.48;;;5.40;;
26512;SDS011;14186;53.822;10.152;2023-07-30T08:48:32;10.95;;;4.78;;
26512;SDS011;14186;53.822;10.152;2023-07-30T08:53:34;9.88;;;3.83;;
26512;SDS011;14186;53.822;10.152;2023-07-30T08:58:34;14.07;;;4.00;;
26512;SDS011;14186;53.822;10.152;2023-07-30T09:03:35;11.32;;;3.88;;
26512;SDS011;14186;53.822;10.152;2023-07-30T09:08:38;13.90;;;3.33;;
26512;SDS011;14186;53.822;10.152;2023-07-30T09:13:39;13.32;;;3.20;;
26512;SDS011;14186;53.822;10.152;2023-07-30T09:18:40;12.75;;;3.42;;
26512;SDS011;14186;53.822;10.152;2023-07-30T09:23:42;10.82;;;3.33;;
26512;SDS011;14186;53.822;10.152;2023-07-30T09:28:43;9.35;;;2.95;;
26512;SDS011;14186;53.822;10.152;2023-07-30T09:33:43;11.07;;;3.65;;
26512;SDS011;14186;53.822;10.152;2023-07-30T09:38:45;10.00;;;3.90;;
26512;SDS011;14186;53.822;10.152;2023-07-30T09:43:46;16.27;;;4.03;;
26512;SDS011;14186;53.822;10.152;2023-07-30T09:48:47;10.32;;;3.63;;
26512;SDS011;14186;53.822;10.152;2023-07-30T09:53:48;11.50;;;3.38;;
26512;SDS011;14186;53.822;10.152;2023-07-30T09:58:49;11.25;;;4.00;;
26512;SDS011;14186;53.822;10.152;2023-07-30T10:03:49;8.77;;;3.10;;
26512;SDS011;14186;53.822;10.152;2023-07-30T10:08:51;10.93;;;2.83;;
26512;SDS011;14186;53.822;10.152;2023-07-30T10:13:53;10.98;;;3.03;;
26512;SDS011;14186;53.822;10.152;2023-07-30T10:18:55;9.88;;;3.28;;
26512;SDS011;14186;53.822;10.152;2023-07-30T10:24:02;9.98;;;3.47;;
26512;SDS011;14186;53.822;10.152;2023-07-30T10:29:09;11.68;;;3.80;;
26512;SDS011;14186;53.822;10.152;2023-07-30T10:34:10;8.90;;;4.15;;
26512;SDS011;14186;53.822;10.152;2023-07-30T10:39:17;11.15;;;3.80;;
26512;SDS011;14186;53.822;10.152;2023-07-30T10:44:18;10.13;;;4.38;;
26512;SDS011;14186;53.822;10.152;2023-07-30T10:49:18;11.20;;;4.43;;
26512;SDS011;14186;53.822;10.152;2023-07-30T10:54:20;13.35;;;3.88;;
26512;SDS011;14186;53.822;10.152;2023-07-30T10:59:20;7.95;;;3.13;;
26512;SDS011;14186;53.822;10.152;2023-07-30T11:04:21;11.00;;;3.75;;
26512;SDS011;14186;53.822;10.152;2023-07-30T11:09:23;12.60;;;3.63;;
26512;SDS011;14186;53.822;10.152;2023-07-30T11:14:24;5.85;;;2.53;;
26512;SDS011;14186;53.822;10.152;2023-07-30T11:19:25;10.77;;;3.00;;
26512;SDS011;14186;53.822;10.152;2023-07-30T11:24:34;7.93;;;2.13;;
26512;SDS011;14186;53.822;10.152;2023-07-30T11:29:34;11.45;;;2.40;;
26512;SDS011;14186;53.822;10.152;2023-07-30T11:34:35;7.13;;;1.90;;
26512;SDS011;14186;53.822;10.152;2023-07-30T11:39:37;8.40;;;1.90;;
26512;SDS011;14186;53.822;10.152;2023-07-30T11:44:37;9.80;;;2.83;;
26512;SDS011;14186;53.822;10.152;2023-07-30T11:49:38;11.35;;;2.13;;
26512;SDS011;14186;53.822;10.152;2023-07-30T11:54:39;7.80;;;1.88;;
26512;SDS011;14186;53.822;10.152;2023-07-30T11:59:40;6.25;;;1.75;;
26512;SDS011;14186;53.822;10.152;2023-07-30T12:04:43;6.07;;;1.92;;
26512;SDS011;14186;53.822;10.152;2023-07-30T12:09:45;5.90;;;1.30;;
26512;SDS011;14186;53.822;10.152;2023-07-30T12:14:52;6.10;;;1.30;;
26512;SDS011;14186;53.822;10.152;2023-07-30T12:19:52;9.98;;;1.40;;
26512;SDS011;14186;53.822;10.152;2023-07-30T12:24:55;5.78;;;1.30;;
26512;SDS011;14186;53.822;10.152;2023-07-30T12:29:55;4.78;;;1.08;;
26512;SDS011;14186;53.822;10.152;2023-07-30T12:34:55;3.70;;;0.95;;
26512;SDS011;14186;53.822;10.152;2023-07-30T12:39:57;7.45;;;1.58;;
26512;SDS011;14186;53.822;10.152;2023-07-30T12:44:57;7.35;;;1.50;;
26512;SDS011;14186;53.822;10.152;2023-07-30T12:49:57;8.68;;;1.45;;
26512;SDS011;14186;53.822;10.152;2023-07-30T12:54:59;3.97;;;1.60;;
26512;SDS011;14186;53.822;10.152;2023-07-30T12:59:59;4.55;;;1.45;;
26512;SDS011;14186;53.822;10.152;2023-07-30T13:04:59;7.85;;;1.50;;
26512;SDS011;14186;53.822;10.152;2023-07-30T13:10:06;7.13;;;1.52;;
26512;SDS011;14186;53.822;10.152;2023-07-30T13:15:07;9.93;;;2.05;;
26512;SDS011;14186;53.822;10.152;2023-07-30T13:20:07;7.47;;;3.08;;
26512;SDS011;14186;53.822;10.152;2023-07-30T13:25:09;10.55;;;3.22;;
26512;SDS011;14186;53.822;10.152;2023-07-30T13:30:10;11.77;;;3.65;;
26512;SDS011;14186;53.822;10.152;2023-07-30T13:35:10;11.57;;;3.10;;
26512;SDS011;14186;53.822;10.152;2023-07-30T13:40:12;10.73;;;2.38;;
26512;SDS011;14186;53.822;10.152;2023-07-30T13:45:13;5.45;;;1.92;;
26512;SDS011;14186;53.822;10.152;2023-07-30T13:50:13;6.95;;;2.90;;
26512;SDS011;14186;53.822;10.152;2023-07-30T13:55:15;6.95;;;1.75;;
26512;SDS011;14186;53.822;10.152;2023-07-30T14:00:15;2.35;;;1.17;;
26512;SDS011;14186;53.822;10.152;2023-07-30T14:05:15;2.90;;;0.90;;
26512;SDS011;14186;53.822;10.152;2023-07-30T14:10:17;3.60;;;0.95;;
26512;SDS011;14186;53.822;10.152;2023-07-30T14:15:17;2.05;;;0.75;;
26512;SDS011;14186;53.822;10.152;2023-07-30T14:20:18;2.25;;;0.82;;
26512;SDS011;14186;53.822;10.152;2023-07-30T14:25:19;3.63;;;0.75;;
26512;SDS011;14186;53.822;10.152;2023-07-30T14:30:20;2.28;;;0.80;;
26512;SDS011;14186;53.822;10.152;2023-07-30T14:35:20;3.47;;;1.00;;
26512;SDS011;14186;53.822;10.152;2023-07-30T14:40:22;1.97;;;1.03;;
26512;SDS011;14186;53.822;10.152;2023-07-30T14:45:22;4.70;;;1.20;;
26512;SDS011;14186;53.822;10.152;2023-07-30T14:50:22;5.00;;;0.97;;
26512;SDS011;14186;53.822;10.152;2023-07-30T14:55:24;4.38;;;1.17;;
26512;SDS011;14186;53.822;10.152;2023-07-30T15:00:25;3.95;;;1.23;;
26512;SDS011;14186;53.822;10.152;2023-07-30T15:05:25;4.70;;;1.00;;
26512;SDS011;14186;53.822;10.152;2023-07-30T15:10:27;2.78;;;0.90;;
26512;SDS011;14186;53.822;10.152;2023-07-30T15:15:27;6.85;;;1.52;;
26512;SDS011;14186;53.822;10.152;2023-07-30T15:20:27;6.50;;;1.37;;
26512;SDS011;14186;53.822;10.152;2023-07-30T15:25:29;2.33;;;0.95;;
26512;SDS011;14186;53.822;10.152;2023-07-30T15:30:29;4.18;;;0.93;;
26512;SDS011;14186;53.822;10.152;2023-07-30T15:35:29;3.67;;;0.90;;
26512;SDS011;14186;53.822;10.152;2023-07-30T15:40:31;3.72;;;1.73;;
26512;SDS011;14186;53.822;10.152;2023-07-30T15:45:31;10.40;;;1.90;;
26512;SDS011;14186;53.822;10.152;2023-07-30T15:50:32;6.30;;;1.55;;
26512;SDS011;14186;53.822;10.152;2023-07-30T15:55:34;8.55;;;2.85;;
26512;SDS011;14186;53.822;10.152;2023-07-30T16:00:34;3.88;;;1.08;;
26512;SDS011;14186;53.822;10.152;2023-07-30T16:05:34;5.85;;;1.40;;
26512;SDS011;14186;53.822;10.152;2023-07-30T16:10:36;5.53;;;1.30;;
26512;SDS011;14186;53.822;10.152;2023-07-30T16:15:36;4.95;;;0.90;;
26512;SDS011;14186;53.822;10.152;2023-07-30T16:20:37;5.45;;;1.05;;
26512;SDS011;14186;53.822;10.152;2023-07-30T16:25:38;3.13;;;1.17;;
26512;SDS011;14186;53.822;10.152;2023-07-30T16:30:38;5.13;;;1.23;;
26512;SDS011;14186;53.822;10.152;2023-07-30T16:35:39;7.32;;;1.55;;
26512;SDS011;14186;53.822;10.152;2023-07-30T16:40:41;7.15;;;1.20;;
26512;SDS011;14186;53.822;10.152;2023-07-30T16:45:41;6.40;;;0.82;;
26512;SDS011;14186;53.822;10.152;2023-07-30T16:50:44;3.65;;;0.68;;
26512;SDS011;14186;53.822;10.152;2023-07-30T16:55:46;3.22;;;0.70;;
26512;SDS011;14186;53.822;10.152;2023-07-30T17:00:46;4.10;;;1.10;;
26512;SDS011;14186;53.822;10.152;2023-07-30T17:05:46;2.80;;;0.65;;
26512;SDS011;14186;53.822;10.152;2023-07-30T17:10:57;4.72;;;0.50;;
26512;SDS011;14186;53.822;10.152;2023-07-30T17:16:02;2.47;;;0.70;;
26512;SDS011;14186;53.822;10.152;2023-07-30T17:21:03;2.28;;;0.73;;
26512;SDS011;14186;53.822;10.152;2023-07-30T17:26:05;2.60;;;0.80;;
26512;SDS011;14186;53.822;10.152;2023-07-30T17:31:05;2.22;;;0.60;;
26512;SDS011;14186;53.822;10.152;2023-07-30T17:36:05;3.63;;;1.27;;
26512;SDS011;14186;53.822;10.152;2023-07-30T17:41:07;2.95;;;0.77;;
26512;SDS011;14186;53.822;10.152;2023-07-30T17:46:07;3.15;;;0.82;;
26512;SDS011;14186;53.822;10.152;2023-07-30T17:51:12;3.33;;;0.80;;
26512;SDS011;14186;53.822;10.152;2023-07-30T17:56:14;1.95;;;0.57;;
26512;SDS011;14186;53.822;10.152;2023-07-30T18:01:14;3.22;;;0.90;;
26512;SDS011;14186;53.822;10.152;2023-07-30T18:06:14;2.97;;;0.82;;
26512;SDS011;14186;53.822;10.152;2023-07-30T18:11:16;4.20;;;0.90;;
26512;SDS011;14186;53.822;10.152;2023-07-30T18:16:16;3.85;;;0.93;;
26512;SDS011;14186;53.822;10.152;2023-07-30T18:21:17;4.65;;;1.00;;
26512;SDS011;14186;53.822;10.152;2023-07-30T18:31:33;7.63;;;0.98;;
26512;SDS011;14186;53.822;10.152;2023-07-30T18:36:34;7.68;;;1.48;;
26512;SDS011;14186;53.822;10.152;2023-07-30T18:41:34;6.43;;;0.90;;
26512;SDS011;14186;53.822;10.152;2023-07-30T18:51:52;3.40;;;0.90;;
26512;SDS011;14186;53.822;10.152;2023-07-30T18:56:52;4.53;;;0.98;;
26512;SDS011;14186;53.822;10.152;2023-07-30T19:01:53;5.78;;;1.02;;
26512;SDS011;14186;53.822;10.152;2023-07-30T19:06:55;3.45;;;0.90;;
26512;SDS011;14186;53.822;10.152;2023-07-30T19:11:55;4.20;;;0.50;;
26512;SDS011;14186;53.822;10.152;2023-07-30T19:16:55;3.55;;;0.40;;
26512;SDS011;14186;53.822;10.152;2023-07-30T19:21:57;4.57;;;0.73;;
26512;SDS011;14186;53.822;10.152;2023-07-30T19:26:57;1.70;;;0.47;;
26512;SDS011;14186;53.822;10.152;2023-07-30T19:31:58;3.53;;;0.40;;
26512;SDS011;14186;53.822;10.152;2023-07-30T19:36:59;2.80;;;0.77;;
26512;SDS011;14186;53.822;10.152;2023-07-30T19:42:00;1.95;;;0.50;;
26512;SDS011;14186;53.822;10.152;2023-07-30T19:47:00;3.33;;;0.50;;
26512;SDS011;14186;53.822;10.152;2023-07-30T19:52:02;4.78;;;0.80;;
26512;SDS011;14186;53.822;10.152;2023-07-30T19:57:03;3.17;;;0.75;;
26512;SDS011;14186;53.822;10.152;2023-07-30T20:02:03;2.92;;;0.90;;
26512;SDS011;14186;53.822;10.152;2023-07-30T20:07:06;4.25;;;0.70;;
26512;SDS011;14186;53.822;10.152;2023-07-30T20:12:06;2.17;;;0.63;;
26512;SDS011;14186;53.822;10.152;2023-07-30T20:17:07;3.67;;;0.57;;
26512;SDS011;14186;53.822;10.152;2023-07-30T20:22:09;4.10;;;0.90;;
26512;SDS011;14186;53.822;10.152;2023-07-30T20:27:10;3.95;;;1.00;;
26512;SDS011;14186;53.822;10.152;2023-07-30T20:32:11;2.25;;;0.85;;
26512;SDS011;14186;53.822;10.152;2023-07-30T20:37:13;3.70;;;0.85;;
26512;SDS011;14186;53.822;10.152;2023-07-30T20:42:14;3.95;;;0.90;;
26512;SDS011;14186;53.822;10.152;2023-07-30T20:47:14;2.15;;;0.70;;
26512;SDS011;14186;53.822;10.152;2023-07-30T20:52:16;4.60;;;0.98;;
26512;SDS011;14186;53.822;10.152;2023-07-30T20:57:17;3.47;;;0.90;;
26512;SDS011;14186;53.822;10.152;2023-07-30T21:02:17;5.20;;;1.00;;
26512;SDS011;14186;53.822;10.152;2023-07-30T21:07:19;2.92;;;0.80;;
26512;SDS011;14186;53.822;10.152;2023-07-30T21:12:19;2.45;;;1.00;;
26512;SDS011;14186;53.822;10.152;2023-07-30T21:17:19;3.80;;;0.80;;
26512;SDS011;14186;53.822;10.152;2023-07-30T21:22:21;3.00;;;0.90;;
26512;SDS011;14186;53.822;10.152;2023-07-30T21:27:22;4.75;;;1.00;;
26512;SDS011;14186;53.822;10.152;2023-07-30T21:32:22;4.03;;;1.17;;
26512;SDS011;14186;53.822;10.152;2023-07-30T21:37:26;1.40;;;0.80;;
26512;SDS011;14186;53.822;10.152;2023-07-30T21:42:26;7.40;;;1.40;;
26512;SDS011;14186;53.822;10.152;2023-07-30T21:47:27;4.07;;;1.10;;
26512;SDS011;14186;53.822;10.152;2023-07-30T21:52:29;3.78;;;1.33;;
26512;SDS011;14186;53.822;10.152;2023-07-30T21:57:29;4.20;;;1.52;;
26512;SDS011;14186;53.822;10.152;2023-07-30T22:02:29;4.35;;;1.50;;
26512;SDS011;14186;53.822;10.152;2023-07-30T22:07:31;38.50;;;30.10;;
26512;SDS011;14186;53.822;10.152;2023-07-30T22:12:32;62.28;;;52.45;;
26512;SDS011;14186;53.822;10.152;2023-07-30T22:17:32;14.23;;;8.00;;
26512;SDS011;14186;53.822;10.152;2023-07-30T22:22:33;4.35;;;1.80;;
26512;SDS011;14186;53.822;10.152;2023-07-30T22:27:34;5.72;;;1.50;;
26512;SDS011;14186;53.822;10.152;2023-07-30T22:32:34;4.05;;;1.58;;
26512;SDS011;14186;53.822;10.152;2023-07-30T22:37:36;6.30;;;1.58;;
26512;SDS011;14186;53.822;10.152;2023-07-30T22:42:36;5.43;;;1.80;;
26512;SDS011;14186;53.822;10.152;2023-07-30T22:47:36;4.55;;;1.70;;
26512;SDS011;14186;53.822;10.152;2023-07-30T22:52:38;6.63;;;2.40;;
26512;SDS011;14186;53.822;10.152;2023-07-30T22:57:38;7.60;;;3.03;;
26512;SDS011;14186;53.822;10.152;2023-07-30T23:02:38;4.45;;;1.60;;
26512;SDS011;14186;53.822;10.152;2023-07-30T23:07:40;4.72;;;1.75;;
26512;SDS011;14186;53.822;10.152;2023-07-30T23:12:41;6.90;;;1.77;;
26512;SDS011;14186;53.822;10.152;2023-07-30T23:17:41;4.75;;;1.40;;
26512;SDS011;14186;53.822;10.152;2023-07-30T23:22:43;5.60;;;1.60;;
26512;SDS011;14186;53.822;10.152;2023-07-30T23:27:43;6.38;;;1.70;;
26512;SDS011;14186;53.822;10.152;2023-07-30T23:32:43;3.60;;;1.67;;
26512;SDS011;14186;53.822;10.152;2023-07-30T23:37:46;5.47;;;1.58;;
26512;SDS011;14186;53.822;10.152;2023-07-30T23:42:46;4.15;;;1.50;;
26512;SDS011;14186;53.822;10.152;2023-07-30T23:47:46;4.82;;;1.67;;
26512;SDS011;14186;53.822;10.152;2023-07-30T23:52:48;5.18;;;1.75;;
26512;SDS011;14186;53.822;10.152;2023-07-30T23:57:48;10.18;;;1.88;;
